sensor_id;sensor_type;location;lat;lon;timestamp;pressure;altitude;pressure_sealevel;temperature
70415;BMP280;57837;52.064;113.478;2022-12-18T00:02:01;93911.16;;;-18.67
70415;BMP280;57837;52.064;113.478;2022-12-18T00:05:06;93915.13;;;-18.61
70415;BMP280;57837;52.064;113.478;2022-12-18T00:08:09;93909.22;;;-18.60
70415;BMP280;57837;52.064;113.478;2022-12-18T00:11:16;93905.31;;;-18.56
70415;BMP280;57837;52.064;113.478;2022-12-18T00:14:19;93907.97;;;-18.62
70415;BMP280;57837;52.064;113.478;2022-12-18T00:17:22;93910.66;;;-18.64
70415;BMP280;57837;52.064;113.478;2022-12-18T00:20:25;93916.84;;;-18.61
70415;BMP280;57837;52.064;113.478;2022-12-18T00:23:29;93918.34;;;-18.60
70415;BMP280;57837;52.064;113.478;2022-12-18T00:26:34;93915.06;;;-18.44
70415;BMP280;57837;52.064;113.478;2022-12-18T00:29:40;93916.19;;;-18.30
70415;BMP280;57837;52.064;113.478;2022-12-18T00:32:43;93909.47;;;-18.34
70415;BMP280;57837;52.064;113.478;2022-12-18T00:35:47;93908.22;;;-18.37
70415;BMP280;57837;52.064;113.478;2022-12-18T00:38:50;93906.66;;;-18.48
70415;BMP280;57837;52.064;113.478;2022-12-18T00:41:53;93908.72;;;-18.35
70415;BMP280;57837;52.064;113.478;2022-12-18T00:45:15;93907.94;;;-18.40
70415;BMP280;57837;52.064;113.478;2022-12-18T00:48:18;93906.75;;;-18.38
70415;BMP280;57837;52.064;113.478;2022-12-18T00:51:23;93909.22;;;-18.38
70415;BMP280;57837;52.064;113.478;2022-12-18T00:54:26;93914.06;;;-18.16
70415;BMP280;57837;52.064;113.478;2022-12-18T00:57:31;93916.84;;;-18.12
70415;BMP280;57837;52.064;113.478;2022-12-18T01:00:35;93917.97;;;-18.25
70415;BMP280;57837;52.064;113.478;2022-12-18T01:03:39;93914.72;;;-18.26
70415;BMP280;57837;52.064;113.478;2022-12-18T01:06:43;93910.56;;;-18.25
70415;BMP280;57837;52.064;113.478;2022-12-18T01:09:47;93911.25;;;-18.30
70415;BMP280;57837;52.064;113.478;2022-12-18T01:12:50;93909.03;;;-18.26
70415;BMP280;57837;52.064;113.478;2022-12-18T01:15:54;93915.16;;;-18.34
70415;BMP280;57837;52.064;113.478;2022-12-18T01:18:57;93914.22;;;-18.28
70415;BMP280;57837;52.064;113.478;2022-12-18T01:22:01;93919.50;;;-18.19
70415;BMP280;57837;52.064;113.478;2022-12-18T01:25:05;93918.25;;;-18.16
70415;BMP280;57837;52.064;113.478;2022-12-18T01:28:08;93925.31;;;-18.30
70415;BMP280;57837;52.064;113.478;2022-12-18T01:31:38;93923.28;;;-18.33
70415;BMP280;57837;52.064;113.478;2022-12-18T01:34:41;93926.47;;;-18.38
70415;BMP280;57837;52.064;113.478;2022-12-18T01:37:44;93928.31;;;-18.23
70415;BMP280;57837;52.064;113.478;2022-12-18T01:40:47;93928.44;;;-18.13
70415;BMP280;57837;52.064;113.478;2022-12-18T01:43:56;93928.78;;;-17.99
70415;BMP280;57837;52.064;113.478;2022-12-18T01:47:00;93925.63;;;-17.94
70415;BMP280;57837;52.064;113.478;2022-12-18T01:50:11;93926.59;;;-17.95
70415;BMP280;57837;52.064;113.478;2022-12-18T01:53:22;93928.09;;;-17.94
70415;BMP280;57837;52.064;113.478;2022-12-18T01:56:26;93931.16;;;-17.77
70415;BMP280;57837;52.064;113.478;2022-12-18T01:59:31;93930.81;;;-17.54
70415;BMP280;57837;52.064;113.478;2022-12-18T02:02:36;93935.88;;;-17.38
70415;BMP280;57837;52.064;113.478;2022-12-18T02:09:14;93928.69;;;-17.40
70415;BMP280;57837;52.064;113.478;2022-12-18T02:12:19;93937.13;;;-17.36
70415;BMP280;57837;52.064;113.478;2022-12-18T02:15:36;93937.91;;;-17.25
70415;BMP280;57837;52.064;113.478;2022-12-18T02:18:46;93939.19;;;-17.28
70415;BMP280;57837;52.064;113.478;2022-12-18T02:22:10;93934.41;;;-17.34
70415;BMP280;57837;52.064;113.478;2022-12-18T02:28:56;93952.53;;;-17.61
70415;BMP280;57837;52.064;113.478;2022-12-18T02:32:08;93944.16;;;-17.60
70415;BMP280;57837;52.064;113.478;2022-12-18T02:35:20;93946.22;;;-17.47
70415;BMP280;57837;52.064;113.478;2022-12-18T02:38:29;93944.97;;;-17.44
70415;BMP280;57837;52.064;113.478;2022-12-18T02:41:41;93944.91;;;-17.17
70415;BMP280;57837;52.064;113.478;2022-12-18T02:44:47;93936.00;;;-17.13
70415;BMP280;57837;52.064;113.478;2022-12-18T02:47:53;93933.59;;;-17.03
70415;BMP280;57837;52.064;113.478;2022-12-18T02:51:08;93930.34;;;-17.08
70415;BMP280;57837;52.064;113.478;2022-12-18T02:54:27;93930.97;;;-16.81
70415;BMP280;57837;52.064;113.478;2022-12-18T02:57:55;93926.47;;;-16.89
70415;BMP280;57837;52.064;113.478;2022-12-18T03:01:16;93924.47;;;-17.02
70415;BMP280;57837;52.064;113.478;2022-12-18T03:07:43;93923.56;;;-16.76
70415;BMP280;57837;52.064;113.478;2022-12-18T03:11:09;93916.88;;;-16.70
70415;BMP280;57837;52.064;113.478;2022-12-18T03:14:15;93912.25;;;-16.41
70415;BMP280;57837;52.064;113.478;2022-12-18T03:17:25;93909.28;;;-16.53
70415;BMP280;57837;52.064;113.478;2022-12-18T03:20:31;93921.16;;;-16.50
70415;BMP280;57837;52.064;113.478;2022-12-18T03:23:44;93913.97;;;-16.42
70415;BMP280;57837;52.064;113.478;2022-12-18T03:26:53;93907.06;;;-16.45
70415;BMP280;57837;52.064;113.478;2022-12-18T03:30:05;93913.03;;;-16.10
70415;BMP280;57837;52.064;113.478;2022-12-18T03:33:44;93909.03;;;-15.60
70415;BMP280;57837;52.064;113.478;2022-12-18T03:36:49;93905.06;;;-15.56
70415;BMP280;57837;52.064;113.478;2022-12-18T03:39:53;93903.31;;;-15.61
70415;BMP280;57837;52.064;113.478;2022-12-18T03:43:26;93894.63;;;-15.53
70415;BMP280;57837;52.064;113.478;2022-12-18T03:49:53;93894.84;;;-15.29
70415;BMP280;57837;52.064;113.478;2022-12-18T03:53:13;93893.09;;;-15.23
70415;BMP280;57837;52.064;113.478;2022-12-18T03:56:22;93894.97;;;-14.90
70415;BMP280;57837;52.064;113.478;2022-12-18T03:59:28;93890.22;;;-14.91
70415;BMP280;57837;52.064;113.478;2022-12-18T04:02:34;93885.28;;;-15.02
70415;BMP280;57837;52.064;113.478;2022-12-18T04:05:39;93879.09;;;-15.04
70415;BMP280;57837;52.064;113.478;2022-12-18T04:08:44;93879.28;;;-14.85
70415;BMP280;57837;52.064;113.478;2022-12-18T04:11:51;93882.91;;;-14.67
70415;BMP280;57837;52.064;113.478;2022-12-18T04:14:56;93874.50;;;-14.37
70415;BMP280;57837;52.064;113.478;2022-12-18T04:17:59;93880.09;;;-14.17
70415;BMP280;57837;52.064;113.478;2022-12-18T04:21:10;93878.22;;;-14.30
70415;BMP280;57837;52.064;113.478;2022-12-18T04:24:14;93879.47;;;-14.72
70415;BMP280;57837;52.064;113.478;2022-12-18T04:27:27;93878.00;;;-14.38
70415;BMP280;57837;52.064;113.478;2022-12-18T04:30:33;93875.53;;;-14.38
70415;BMP280;57837;52.064;113.478;2022-12-18T04:33:38;93875.50;;;-14.33
70415;BMP280;57837;52.064;113.478;2022-12-18T04:36:41;93867.03;;;-14.32
70415;BMP280;57837;52.064;113.478;2022-12-18T04:39:47;93864.22;;;-14.55
70415;BMP280;57837;52.064;113.478;2022-12-18T04:42:58;93862.41;;;-14.49
70415;BMP280;57837;52.064;113.478;2022-12-18T04:46:06;93856.47;;;-14.48
70415;BMP280;57837;52.064;113.478;2022-12-18T04:49:09;93852.38;;;-14.68
70415;BMP280;57837;52.064;113.478;2022-12-18T04:52:16;93848.38;;;-14.59
70415;BMP280;57837;52.064;113.478;2022-12-18T04:55:19;93841.38;;;-14.57
70415;BMP280;57837;52.064;113.478;2022-12-18T04:58:23;93844.00;;;-14.77
70415;BMP280;57837;52.064;113.478;2022-12-18T05:01:26;93843.81;;;-14.91
70415;BMP280;57837;52.064;113.478;2022-12-18T05:04:37;93839.88;;;-15.02
70415;BMP280;57837;52.064;113.478;2022-12-18T05:07:41;93832.03;;;-15.09
70415;BMP280;57837;52.064;113.478;2022-12-18T05:10:43;93834.91;;;-14.97
70415;BMP280;57837;52.064;113.478;2022-12-18T05:13:47;93837.25;;;-14.72
70415;BMP280;57837;52.064;113.478;2022-12-18T05:16:50;93829.31;;;-14.74
70415;BMP280;57837;52.064;113.478;2022-12-18T05:19:59;93832.38;;;-14.82
70415;BMP280;57837;52.064;113.478;2022-12-18T05:23:02;93829.44;;;-14.89
70415;BMP280;57837;52.064;113.478;2022-12-18T05:26:06;93828.91;;;-14.86
70415;BMP280;57837;52.064;113.478;2022-12-18T05:29:10;93819.75;;;-14.90
70415;BMP280;57837;52.064;113.478;2022-12-18T05:32:15;93821.97;;;-14.84
70415;BMP280;57837;52.064;113.478;2022-12-18T05:35:20;93816.75;;;-14.82
70415;BMP280;57837;52.064;113.478;2022-12-18T05:38:25;93819.81;;;-14.61
70415;BMP280;57837;52.064;113.478;2022-12-18T05:41:29;93822.66;;;-14.44
70415;BMP280;57837;52.064;113.478;2022-12-18T05:44:32;93822.69;;;-14.49
70415;BMP280;57837;52.064;113.478;2022-12-18T05:47:36;93821.81;;;-14.63
70415;BMP280;57837;52.064;113.478;2022-12-18T05:50:41;93820.63;;;-14.71
70415;BMP280;57837;52.064;113.478;2022-12-18T05:53:46;93826.78;;;-14.63
70415;BMP280;57837;52.064;113.478;2022-12-18T05:56:49;93822.22;;;-14.51
70415;BMP280;57837;52.064;113.478;2022-12-18T05:59:53;93822.97;;;-14.22
70415;BMP280;57837;52.064;113.478;2022-12-18T06:02:56;93821.03;;;-14.25
70415;BMP280;57837;52.064;113.478;2022-12-18T06:06:00;93816.66;;;-14.38
70415;BMP280;57837;52.064;113.478;2022-12-18T06:09:05;93824.09;;;-14.38
70415;BMP280;57837;52.064;113.478;2022-12-18T06:12:12;93828.19;;;-14.18
70415;BMP280;57837;52.064;113.478;2022-12-18T06:15:15;93823.06;;;-14.32
70415;BMP280;57837;52.064;113.478;2022-12-18T06:18:18;93821.22;;;-14.21
70415;BMP280;57837;52.064;113.478;2022-12-18T06:21:21;93833.25;;;-14.28
70415;BMP280;57837;52.064;113.478;2022-12-18T06:24:24;93819.53;;;-14.26
70415;BMP280;57837;52.064;113.478;2022-12-18T06:27:27;93819.44;;;-14.16
70415;BMP280;57837;52.064;113.478;2022-12-18T06:30:30;93818.72;;;-14.16
70415;BMP280;57837;52.064;113.478;2022-12-18T06:33:34;93814.50;;;-14.21
70415;BMP280;57837;52.064;113.478;2022-12-18T06:36:39;93820.59;;;-14.32
70415;BMP280;57837;52.064;113.478;2022-12-18T06:39:42;93832.69;;;-14.54
70415;BMP280;57837;52.064;113.478;2022-12-18T06:42:46;93828.47;;;-14.54
70415;BMP280;57837;52.064;113.478;2022-12-18T06:45:49;93826.97;;;-14.55
70415;BMP280;57837;52.064;113.478;2022-12-18T06:48:56;93824.56;;;-14.65
70415;BMP280;57837;52.064;113.478;2022-12-18T06:51:59;93820.97;;;-14.83
70415;BMP280;57837;52.064;113.478;2022-12-18T06:55:04;93829.81;;;-14.72
70415;BMP280;57837;52.064;113.478;2022-12-18T06:58:09;93817.69;;;-14.78
70415;BMP280;57837;52.064;113.478;2022-12-18T07:01:14;93826.59;;;-14.72
70415;BMP280;57837;52.064;113.478;2022-12-18T07:04:18;93819.59;;;-14.65
70415;BMP280;57837;52.064;113.478;2022-12-18T07:07:22;93821.38;;;-14.71
70415;BMP280;57837;52.064;113.478;2022-12-18T07:10:26;93821.84;;;-14.68
70415;BMP280;57837;52.064;113.478;2022-12-18T07:13:29;93832.63;;;-14.83
70415;BMP280;57837;52.064;113.478;2022-12-18T07:16:32;93835.91;;;-14.98
70415;BMP280;57837;52.064;113.478;2022-12-18T07:19:36;93828.75;;;-15.05
70415;BMP280;57837;52.064;113.478;2022-12-18T07:22:40;93827.78;;;-15.09
70415;BMP280;57837;52.064;113.478;2022-12-18T07:25:44;93839.66;;;-15.01
70415;BMP280;57837;52.064;113.478;2022-12-18T07:28:47;93838.38;;;-14.93
70415;BMP280;57837;52.064;113.478;2022-12-18T07:31:51;93839.06;;;-14.82
70415;BMP280;57837;52.064;113.478;2022-12-18T07:34:54;93844.31;;;-14.84
70415;BMP280;57837;52.064;113.478;2022-12-18T07:37:58;93845.81;;;-14.93
70415;BMP280;57837;52.064;113.478;2022-12-18T07:41:10;93840.41;;;-15.05
70415;BMP280;57837;52.064;113.478;2022-12-18T07:44:14;93837.97;;;-15.10
70415;BMP280;57837;52.064;113.478;2022-12-18T07:47:17;93845.44;;;-15.15
70415;BMP280;57837;52.064;113.478;2022-12-18T07:50:20;93844.72;;;-15.21
70415;BMP280;57837;52.064;113.478;2022-12-18T07:53:24;93849.19;;;-15.28
70415;BMP280;57837;52.064;113.478;2022-12-18T07:56:27;93847.03;;;-15.35
70415;BMP280;57837;52.064;113.478;2022-12-18T07:59:33;93861.38;;;-15.37
70415;BMP280;57837;52.064;113.478;2022-12-18T08:02:36;93855.69;;;-15.37
70415;BMP280;57837;52.064;113.478;2022-12-18T08:05:40;93855.97;;;-15.49
70415;BMP280;57837;52.064;113.478;2022-12-18T08:08:44;93851.00;;;-15.49
70415;BMP280;57837;52.064;113.478;2022-12-18T08:11:47;93859.19;;;-15.59
70415;BMP280;57837;52.064;113.478;2022-12-18T08:14:51;93866.69;;;-15.74
70415;BMP280;57837;52.064;113.478;2022-12-18T08:17:58;93864.44;;;-15.75
70415;BMP280;57837;52.064;113.478;2022-12-18T08:21:09;93868.66;;;-15.66
70415;BMP280;57837;52.064;113.478;2022-12-18T08:24:13;93872.41;;;-15.73
70415;BMP280;57837;52.064;113.478;2022-12-18T08:27:17;93870.94;;;-15.90
70415;BMP280;57837;52.064;113.478;2022-12-18T08:30:36;93879.38;;;-15.96
70415;BMP280;57837;52.064;113.478;2022-12-18T08:33:40;93871.41;;;-16.08
70415;BMP280;57837;52.064;113.478;2022-12-18T08:36:44;93876.38;;;-16.13
70415;BMP280;57837;52.064;113.478;2022-12-18T08:39:48;93878.13;;;-16.29
70415;BMP280;57837;52.064;113.478;2022-12-18T08:42:51;93884.78;;;-16.40
70415;BMP280;57837;52.064;113.478;2022-12-18T08:46:13;93890.72;;;-16.30
70415;BMP280;57837;52.064;113.478;2022-12-18T08:49:16;93886.50;;;-16.30
70415;BMP280;57837;52.064;113.478;2022-12-18T08:52:19;93892.66;;;-16.63
70415;BMP280;57837;52.064;113.478;2022-12-18T08:55:23;93891.44;;;-16.66
70415;BMP280;57837;52.064;113.478;2022-12-18T08:58:27;93895.81;;;-16.88
70415;BMP280;57837;52.064;113.478;2022-12-18T09:01:30;93897.03;;;-16.96
70415;BMP280;57837;52.064;113.478;2022-12-18T09:04:34;93894.78;;;-17.07
70415;BMP280;57837;52.064;113.478;2022-12-18T09:07:38;93889.66;;;-17.38
70415;BMP280;57837;52.064;113.478;2022-12-18T09:10:43;93907.97;;;-17.34
70415;BMP280;57837;52.064;113.478;2022-12-18T09:13:46;93901.56;;;-17.35
70415;BMP280;57837;52.064;113.478;2022-12-18T09:16:49;93897.00;;;-17.48
70415;BMP280;57837;52.064;113.478;2022-12-18T09:19:52;93903.47;;;-17.47
70415;BMP280;57837;52.064;113.478;2022-12-18T09:22:55;93896.59;;;-17.40
70415;BMP280;57837;52.064;113.478;2022-12-18T09:25:59;93904.94;;;-17.46
70415;BMP280;57837;52.064;113.478;2022-12-18T09:29:03;93894.28;;;-17.57
70415;BMP280;57837;52.064;113.478;2022-12-18T09:32:07;93900.81;;;-17.73
70415;BMP280;57837;52.064;113.478;2022-12-18T09:35:10;93900.47;;;-17.54
70415;BMP280;57837;52.064;113.478;2022-12-18T09:38:17;93897.22;;;-17.60
70415;BMP280;57837;52.064;113.478;2022-12-18T09:44:53;93908.50;;;-17.69
70415;BMP280;57837;52.064;113.478;2022-12-18T09:47:57;93908.50;;;-17.69
70415;BMP280;57837;52.064;113.478;2022-12-18T09:51:28;93910.47;;;-17.71
70415;BMP280;57837;52.064;113.478;2022-12-18T09:54:38;93902.50;;;-17.78
70415;BMP280;57837;52.064;113.478;2022-12-18T09:57:52;93910.34;;;-17.91
70415;BMP280;57837;52.064;113.478;2022-12-18T10:00:56;93904.78;;;-18.04
70415;BMP280;57837;52.064;113.478;2022-12-18T10:03:59;93907.50;;;-18.05
70415;BMP280;57837;52.064;113.478;2022-12-18T10:07:35;93901.56;;;-18.09
70415;BMP280;57837;52.064;113.478;2022-12-18T10:10:53;93906.91;;;-18.17
70415;BMP280;57837;52.064;113.478;2022-12-18T10:23:43;93920.97;;;-18.18
70415;BMP280;57837;52.064;113.478;2022-12-18T10:26:50;93911.56;;;-18.21
70415;BMP280;57837;52.064;113.478;2022-12-18T10:29:54;93914.81;;;-18.20
70415;BMP280;57837;52.064;113.478;2022-12-18T10:33:01;93918.16;;;-18.27
70415;BMP280;57837;52.064;113.478;2022-12-18T10:36:04;93915.16;;;-18.34
70415;BMP280;57837;52.064;113.478;2022-12-18T10:39:21;93920.81;;;-18.38
70415;BMP280;57837;52.064;113.478;2022-12-18T10:42:24;93919.56;;;-18.36
70415;BMP280;57837;52.064;113.478;2022-12-18T10:45:28;93915.81;;;-18.43
70415;BMP280;57837;52.064;113.478;2022-12-18T10:48:31;93915.47;;;-18.52
70415;BMP280;57837;52.064;113.478;2022-12-18T10:51:37;93917.34;;;-18.59
70415;BMP280;57837;52.064;113.478;2022-12-18T10:54:48;93925.41;;;-18.69
70415;BMP280;57837;52.064;113.478;2022-12-18T10:57:51;93917.97;;;-18.74
70415;BMP280;57837;52.064;113.478;2022-12-18T11:01:12;93911.09;;;-18.72
70415;BMP280;57837;52.064;113.478;2022-12-18T11:04:22;93912.28;;;-18.74
70415;BMP280;57837;52.064;113.478;2022-12-18T11:07:47;93911.09;;;-18.72
70415;BMP280;57837;52.064;113.478;2022-12-18T11:10:52;93918.53;;;-18.67
70415;BMP280;57837;52.064;113.478;2022-12-18T11:14:05;93908.47;;;-18.82
70415;BMP280;57837;52.064;113.478;2022-12-18T11:20:34;93910.38;;;-18.89
70415;BMP280;57837;52.064;113.478;2022-12-18T11:23:50;93909.53;;;-18.78
70415;BMP280;57837;52.064;113.478;2022-12-18T11:26:54;93920.88;;;-18.77
70415;BMP280;57837;52.064;113.478;2022-12-18T11:30:37;93913.66;;;-18.84
70415;BMP280;57837;52.064;113.478;2022-12-18T11:33:43;93914.50;;;-18.73
70415;BMP280;57837;52.064;113.478;2022-12-18T11:37:12;93914.06;;;-18.70
70415;BMP280;57837;52.064;113.478;2022-12-18T11:40:20;93905.44;;;-18.89
70415;BMP280;57837;52.064;113.478;2022-12-18T11:43:42;93914.81;;;-18.69
70415;BMP280;57837;52.064;113.478;2022-12-18T11:46:56;93912.03;;;-18.73
70415;BMP280;57837;52.064;113.478;2022-12-18T11:50:12;93918.63;;;-18.79
70415;BMP280;57837;52.064;113.478;2022-12-18T11:53:17;93926.78;;;-19.00
70415;BMP280;57837;52.064;113.478;2022-12-18T11:56:41;93926.16;;;-18.90
70415;BMP280;57837;52.064;113.478;2022-12-18T12:00:02;93915.22;;;-19.16
70415;BMP280;57837;52.064;113.478;2022-12-18T12:03:17;93921.88;;;-19.17
70415;BMP280;57837;52.064;113.478;2022-12-18T12:06:35;93916.69;;;-19.20
70415;BMP280;57837;52.064;113.478;2022-12-18T12:23:01;93901.69;;;-19.36
70415;BMP280;57837;52.064;113.478;2022-12-18T12:33:16;93909.97;;;-19.25
70415;BMP280;57837;52.064;113.478;2022-12-18T12:39:37;93903.19;;;-19.35
70415;BMP280;57837;52.064;113.478;2022-12-18T12:42:51;93894.97;;;-19.40
70415;BMP280;57837;52.064;113.478;2022-12-18T12:46:17;93899.69;;;-19.55
70415;BMP280;57837;52.064;113.478;2022-12-18T12:49:27;93893.72;;;-19.60
70415;BMP280;57837;52.064;113.478;2022-12-18T12:52:42;93897.09;;;-19.66
70415;BMP280;57837;52.064;113.478;2022-12-18T12:55:47;93892.91;;;-19.65
70415;BMP280;57837;52.064;113.478;2022-12-18T13:02:24;93893.81;;;-19.71
70415;BMP280;57837;52.064;113.478;2022-12-18T13:05:40;93898.38;;;-19.63
70415;BMP280;57837;52.064;113.478;2022-12-18T13:08:59;93894.41;;;-19.64
70415;BMP280;57837;52.064;113.478;2022-12-18T13:12:04;93888.88;;;-19.71
70415;BMP280;57837;52.064;113.478;2022-12-18T13:18:52;93882.25;;;-19.71
70415;BMP280;57837;52.064;113.478;2022-12-18T13:21:57;93880.97;;;-19.90
70415;BMP280;57837;52.064;113.478;2022-12-18T13:25:01;93875.31;;;-19.91
70415;BMP280;57837;52.064;113.478;2022-12-18T13:28:12;93873.91;;;-19.87
70415;BMP280;57837;52.064;113.478;2022-12-18T13:34:45;93869.59;;;-19.79
70415;BMP280;57837;52.064;113.478;2022-12-18T13:37:52;93860.16;;;-19.99
70415;BMP280;57837;52.064;113.478;2022-12-18T13:44:35;93869.38;;;-19.78
70415;BMP280;57837;52.064;113.478;2022-12-18T13:47:58;93867.00;;;-19.68
70415;BMP280;57837;52.064;113.478;2022-12-18T13:51:05;93858.69;;;-19.67
70415;BMP280;57837;52.064;113.478;2022-12-18T13:54:41;93861.88;;;-19.66
70415;BMP280;57837;52.064;113.478;2022-12-18T13:57:44;93857.28;;;-19.79
70415;BMP280;57837;52.064;113.478;2022-12-18T14:00:49;93861.47;;;-19.80
70415;BMP280;57837;52.064;113.478;2022-12-18T14:04:18;93853.31;;;-19.97
70415;BMP280;57837;52.064;113.478;2022-12-18T14:07:24;93855.56;;;-20.13
70415;BMP280;57837;52.064;113.478;2022-12-18T14:10:32;93843.94;;;-19.83
70415;BMP280;57837;52.064;113.478;2022-12-18T14:13:52;93846.22;;;-19.60
70415;BMP280;57837;52.064;113.478;2022-12-18T14:16:56;93848.59;;;-19.48
70415;BMP280;57837;52.064;113.478;2022-12-18T14:20:00;93848.88;;;-19.45
70415;BMP280;57837;52.064;113.478;2022-12-18T14:23:04;93849.34;;;-19.65
70415;BMP280;57837;52.064;113.478;2022-12-18T14:26:28;93839.63;;;-19.93
70415;BMP280;57837;52.064;113.478;2022-12-18T14:29:34;93846.16;;;-19.99
70415;BMP280;57837;52.064;113.478;2022-12-18T14:32:38;93854.03;;;-20.02
70415;BMP280;57837;52.064;113.478;2022-12-18T14:35:43;93845.03;;;-20.25
70415;BMP280;57837;52.064;113.478;2022-12-18T14:38:57;93850.88;;;-20.31
70415;BMP280;57837;52.064;113.478;2022-12-18T14:42:01;93843.88;;;-20.51
70415;BMP280;57837;52.064;113.478;2022-12-18T14:48:47;93852.97;;;-20.51
70415;BMP280;57837;52.064;113.478;2022-12-18T14:52:05;93843.19;;;-20.63
70415;BMP280;57837;52.064;113.478;2022-12-18T14:55:20;93853.91;;;-20.69
70415;BMP280;57837;52.064;113.478;2022-12-18T14:58:24;93862.19;;;-20.58
70415;BMP280;57837;52.064;113.478;2022-12-18T15:01:37;93846.41;;;-20.63
70415;BMP280;57837;52.064;113.478;2022-12-18T15:04:48;93858.38;;;-20.66
70415;BMP280;57837;52.064;113.478;2022-12-18T15:08:03;93850.34;;;-20.61
70415;BMP280;57837;52.064;113.478;2022-12-18T15:11:26;93852.34;;;-20.58
70415;BMP280;57837;52.064;113.478;2022-12-18T15:14:34;93848.22;;;-20.58
70415;BMP280;57837;52.064;113.478;2022-12-18T15:17:38;93837.09;;;-20.60
70415;BMP280;57837;52.064;113.478;2022-12-18T15:23:49;93839.56;;;-20.44
70415;BMP280;57837;52.064;113.478;2022-12-18T15:26:53;93834.63;;;-20.32
70415;BMP280;57837;52.064;113.478;2022-12-18T15:33:24;93826.94;;;-20.19
70415;BMP280;57837;52.064;113.478;2022-12-18T15:36:29;93826.56;;;-20.11
70415;BMP280;57837;52.064;113.478;2022-12-18T15:39:32;93826.69;;;-20.17
70415;BMP280;57837;52.064;113.478;2022-12-18T15:42:37;93816.56;;;-20.21
70415;BMP280;57837;52.064;113.478;2022-12-18T15:46:12;93822.16;;;-20.08
70415;BMP280;57837;52.064;113.478;2022-12-18T15:49:16;93819.94;;;-20.10
70415;BMP280;57837;52.064;113.478;2022-12-18T15:52:20;93816.72;;;-20.27
70415;BMP280;57837;52.064;113.478;2022-12-18T15:55:29;93818.19;;;-20.26
70415;BMP280;57837;52.064;113.478;2022-12-18T15:58:52;93817.16;;;-20.14
70415;BMP280;57837;52.064;113.478;2022-12-18T16:01:55;93815.41;;;-20.01
70415;BMP280;57837;52.064;113.478;2022-12-18T16:04:59;93813.44;;;-20.16
70415;BMP280;57837;52.064;113.478;2022-12-18T16:08:03;93805.78;;;-20.37
70415;BMP280;57837;52.064;113.478;2022-12-18T16:14:41;93801.72;;;-20.26
70415;BMP280;57837;52.064;113.478;2022-12-18T16:17:46;93805.25;;;-20.67
70415;BMP280;57837;52.064;113.478;2022-12-18T16:20:50;93800.91;;;-21.05
70415;BMP280;57837;52.064;113.478;2022-12-18T16:23:53;93803.13;;;-20.92
70415;BMP280;57837;52.064;113.478;2022-12-18T16:26:58;93797.50;;;-20.76
70415;BMP280;57837;52.064;113.478;2022-12-18T16:30:03;93797.06;;;-20.73
70415;BMP280;57837;52.064;113.478;2022-12-18T16:33:09;93798.53;;;-20.89
70415;BMP280;57837;52.064;113.478;2022-12-18T16:36:13;93794.00;;;-21.08
70415;BMP280;57837;52.064;113.478;2022-12-18T16:39:17;93793.91;;;-21.25
70415;BMP280;57837;52.064;113.478;2022-12-18T16:42:21;93804.47;;;-21.13
70415;BMP280;57837;52.064;113.478;2022-12-18T16:45:24;93796.53;;;-21.03
70415;BMP280;57837;52.064;113.478;2022-12-18T16:48:27;93801.13;;;-21.07
70415;BMP280;57837;52.064;113.478;2022-12-18T16:51:31;93793.09;;;-21.31
70415;BMP280;57837;52.064;113.478;2022-12-18T16:54:36;93800.38;;;-21.48
70415;BMP280;57837;52.064;113.478;2022-12-18T16:57:39;93793.34;;;-21.56
70415;BMP280;57837;52.064;113.478;2022-12-18T17:00:43;93797.22;;;-21.72
70415;BMP280;57837;52.064;113.478;2022-12-18T17:04:00;93801.78;;;-21.87
70415;BMP280;57837;52.064;113.478;2022-12-18T17:07:07;93797.44;;;-21.97
70415;BMP280;57837;52.064;113.478;2022-12-18T17:10:10;93793.25;;;-22.08
70415;BMP280;57837;52.064;113.478;2022-12-18T17:13:17;93797.72;;;-22.17
70415;BMP280;57837;52.064;113.478;2022-12-18T17:16:27;93791.84;;;-22.15
70415;BMP280;57837;52.064;113.478;2022-12-18T17:19:31;93795.91;;;-22.09
70415;BMP280;57837;52.064;113.478;2022-12-18T17:22:35;93794.31;;;-22.04
70415;BMP280;57837;52.064;113.478;2022-12-18T17:25:42;93794.25;;;-21.97
70415;BMP280;57837;52.064;113.478;2022-12-18T17:28:46;93786.88;;;-21.85
70415;BMP280;57837;52.064;113.478;2022-12-18T17:31:49;93789.94;;;-21.78
70415;BMP280;57837;52.064;113.478;2022-12-18T17:34:54;93791.00;;;-21.86
70415;BMP280;57837;52.064;113.478;2022-12-18T17:37:57;93783.66;;;-21.86
70415;BMP280;57837;52.064;113.478;2022-12-18T17:41:06;93781.84;;;-21.91
70415;BMP280;57837;52.064;113.478;2022-12-18T17:44:10;93786.88;;;-21.97
70415;BMP280;57837;52.064;113.478;2022-12-18T17:47:15;93791.44;;;-21.89
70415;BMP280;57837;52.064;113.478;2022-12-18T17:50:19;93786.22;;;-21.81
70415;BMP280;57837;52.064;113.478;2022-12-18T17:53:23;93794.97;;;-21.61
70415;BMP280;57837;52.064;113.478;2022-12-18T17:56:27;93784.06;;;-21.54
70415;BMP280;57837;52.064;113.478;2022-12-18T17:59:30;93784.19;;;-21.49
70415;BMP280;57837;52.064;113.478;2022-12-18T18:02:33;93790.78;;;-21.61
70415;BMP280;57837;52.064;113.478;2022-12-18T18:05:37;93784.84;;;-21.77
70415;BMP280;57837;52.064;113.478;2022-12-18T18:08:41;93785.50;;;-21.70
70415;BMP280;57837;52.064;113.478;2022-12-18T18:11:45;93786.50;;;-21.66
70415;BMP280;57837;52.064;113.478;2022-12-18T18:15:07;93789.09;;;-21.49
70415;BMP280;57837;52.064;113.478;2022-12-18T18:18:12;93794.09;;;-21.44
70415;BMP280;57837;52.064;113.478;2022-12-18T18:21:19;93793.88;;;-21.42
70415;BMP280;57837;52.064;113.478;2022-12-18T18:24:23;93792.94;;;-21.41
70415;BMP280;57837;52.064;113.478;2022-12-18T18:27:29;93791.72;;;-21.50
70415;BMP280;57837;52.064;113.478;2022-12-18T18:30:40;93788.13;;;-21.71
70415;BMP280;57837;52.064;113.478;2022-12-18T18:33:44;93789.22;;;-21.67
70415;BMP280;57837;52.064;113.478;2022-12-18T18:36:49;93784.38;;;-21.62